»·PEaware :: SWA3205 KSAN-KLAS

SWA3205 :: KSAN-KLAS

FLIGHT INFORMATION

Flight Status: Arrived
Operator:
Southwest Airlines
More flights by this operator :: More flights under this callsign
Pilot: Cody B. (17747)
Aircraft: BOEING 737-800
(B738)
More flights by this aircraft type
Origin: KSAN San Diego Intl-Lindbergh
United States
Destination: KLAS McCarran Intl
United States
More flights between these airports :: More routes between these airports
Route: PADRZ2 CHKNN SEBBY YELAH MISEN KEPEC6
File this flight plan on PilotEdge
Remarks:
Altitude:
(Current/Filed)
29,000ft
Speed:
(Current/Filed)
475kts
Departed: 14-Apr-18 12:19 PM
Arrived: 14-Apr-18 01:15 PM
Distance/Time
Traveled:
225nm/0:55
Distance/Time
To Go:
Arrived

Flight Plot

Page will automatically refresh every two minutes.

Flight plan parsing failed; only flown route is shown


Map Options




Map Legend


Flown Route
Filed Route
Departure Airport
Arrival Airport
Navaid (VOR, NDB)
Fix

Horizontal Profiles

Position Reports

Time Latitude Longitude Heading Altitude Ground
Speed
14-Apr-18 11:26 32.733143 -117.195663 225 19ft 0kts
14-Apr-18 11:27 32.733143 -117.195663 225 19ft 0kts
14-Apr-18 11:28 32.733143 -117.195663 225 19ft 0kts
14-Apr-18 11:29 32.733143 -117.195663 225 19ft 0kts
14-Apr-18 11:30 32.733143 -117.195663 225 19ft 0kts
14-Apr-18 11:31 32.733143 -117.195663 225 19ft 0kts
14-Apr-18 11:32 32.733143 -117.195663 225 19ft 0kts
14-Apr-18 11:33 32.733143 -117.195663 225 19ft 0kts
14-Apr-18 11:34 32.733143 -117.195663 225 19ft 0kts
14-Apr-18 11:35 32.733143 -117.195663 225 19ft 0kts
14-Apr-18 11:36 32.733143 -117.195663 225 19ft 0kts
14-Apr-18 11:37 32.733143 -117.195663 225 19ft 0kts
14-Apr-18 11:38 32.733143 -117.195663 225 19ft 0kts
14-Apr-18 11:39 32.733143 -117.195663 225 19ft 0kts
14-Apr-18 11:40 32.733143 -117.195663 225 19ft 0kts
14-Apr-18 11:41 32.733143 -117.195663 225 19ft 0kts
14-Apr-18 11:42 32.733143 -117.195663 225 19ft 0kts
14-Apr-18 11:43 32.733143 -117.195663 225 19ft 0kts
14-Apr-18 11:44 32.733143 -117.195663 225 19ft 0kts
14-Apr-18 11:45 32.733143 -117.195663 225 19ft 0kts
14-Apr-18 11:46 32.733143 -117.195663 225 19ft 0kts
14-Apr-18 11:47 32.733143 -117.195663 225 19ft 0kts
14-Apr-18 11:48 32.733143 -117.195663 225 19ft 0kts
14-Apr-18 11:49 32.733143 -117.195663 225 19ft 0kts
14-Apr-18 11:50 32.733143 -117.195663 225 19ft 0kts
14-Apr-18 11:51 32.733143 -117.195663 225 19ft 0kts
14-Apr-18 11:52 32.733143 -117.195663 225 19ft 0kts
14-Apr-18 11:53 32.733143 -117.195663 225 19ft 0kts
14-Apr-18 11:54 32.733143 -117.195663 225 19ft 0kts
14-Apr-18 11:55 32.733143 -117.195663 225 19ft 0kts
14-Apr-18 11:56 32.733143 -117.195663 225 19ft 0kts
14-Apr-18 11:57 32.733474 -117.195462 160 20ft 2kts
14-Apr-18 11:58 32.733647 -117.195711 106 19ft 0kts
14-Apr-18 11:59 32.733647 -117.195711 106 19ft 0kts
14-Apr-18 12:00 32.733647 -117.195711 106 19ft 0kts
14-Apr-18 12:01 32.733599 -117.195350 83 20ft 4kts
14-Apr-18 12:02 32.733225 -117.192559 106 21ft 13kts
14-Apr-18 12:03 32.732374 -117.189033 105 19ft 13kts
14-Apr-18 12:04 32.731418 -117.185113 106 17ft 10kts
14-Apr-18 12:05 32.730713 -117.182232 105 17ft 11kts
14-Apr-18 12:06 32.730127 -117.179815 105 18ft 9kts
14-Apr-18 12:07 32.729906 -117.178898 114 19ft 0kts
14-Apr-18 12:08 32.729175 -117.177868 96 20ft 3kts
14-Apr-18 12:09 32.729191 -117.177687 75 21ft 0kts
14-Apr-18 12:10 32.729202 -117.177627 76 21ft 0kts
14-Apr-18 12:11 32.729308 -117.177249 68 21ft 1kts
14-Apr-18 12:12 32.729308 -117.177248 68 21ft 0kts
14-Apr-18 12:13 32.729308 -117.177248 68 21ft 0kts
14-Apr-18 12:14 32.729437 -117.176896 63 22ft 3kts
14-Apr-18 12:15 32.729536 -117.176610 69 23ft 0kts
14-Apr-18 12:16 32.729580 -117.176463 70 23ft 3kts
14-Apr-18 12:17 32.730331 -117.176425 287 24ft 7kts
14-Apr-18 12:18 32.738060 -117.209651 287 1418ft 171kts
14-Apr-18 12:19 32.765038 -117.263433 307 4045ft 253kts
14-Apr-18 12:20 32.807982 -117.331654 308 8367ft 270kts
14-Apr-18 12:21 32.856041 -117.406001 308 11884ft 305kts
14-Apr-18 12:22 32.904416 -117.480944 308 15501ft 315kts
14-Apr-18 12:23 32.958259 -117.564586 307 18822ft 327kts
14-Apr-18 12:24 33.014233 -117.651852 306 21697ft 340kts
14-Apr-18 12:25 33.072729 -117.740146 315 24179ft 355kts
14-Apr-18 12:26 33.147914 -117.816813 317 26440ft 367kts
14-Apr-18 12:27 33.226971 -117.895689 319 28467ft 378kts
14-Apr-18 12:28 33.332624 -117.917084 2 29243ft 424kts
14-Apr-18 12:29 33.453076 -117.895176 3 29231ft 450kts
14-Apr-18 12:30 33.576608 -117.872370 3 29229ft 451kts
14-Apr-18 12:31 33.699747 -117.849556 3 29229ft 451kts
14-Apr-18 12:32 33.823467 -117.826576 3 29229ft 451kts
14-Apr-18 12:33 33.947160 -117.803530 3 29210ft 451kts
14-Apr-18 12:34 34.070145 -117.775565 17 29255ft 461kts
14-Apr-18 12:35 34.164857 -117.669972 45 29250ft 482kts
14-Apr-18 12:36 34.249836 -117.544680 45 29250ft 482kts
14-Apr-18 12:37 34.334768 -117.419338 45 29253ft 483kts
14-Apr-18 12:38 34.419053 -117.294681 46 29318ft 483kts
14-Apr-18 12:39 34.504042 -117.168755 46 29318ft 482kts
14-Apr-18 12:40 34.588155 -117.043642 46 29319ft 482kts
14-Apr-18 12:41 34.672990 -116.917010 46 29293ft 483kts
14-Apr-18 12:42 34.757216 -116.790889 46 29293ft 483kts
14-Apr-18 12:43 34.841533 -116.664172 45 29294ft 481kts
14-Apr-18 12:44 34.939339 -116.559605 32 28778ft 460kts
14-Apr-18 12:45 35.036899 -116.465468 32 26018ft 437kts
14-Apr-18 12:46 35.125708 -116.373706 39 24314ft 412kts
14-Apr-18 12:47 35.204572 -116.275023 40 22325ft 393kts
14-Apr-18 12:48 35.279402 -116.181046 40 20905ft 384kts
14-Apr-18 12:49 35.352950 -116.088440 41 19491ft 375kts
14-Apr-18 12:50 35.424732 -115.997833 41 17935ft 368kts
14-Apr-18 12:51 35.493916 -115.910145 41 16494ft 357kts
14-Apr-18 12:52 35.562267 -115.823139 42 15194ft 350kts
14-Apr-18 12:53 35.628921 -115.738331 42 13907ft 335kts
14-Apr-18 12:54 35.690714 -115.659685 42 13037ft 305kts
14-Apr-18 12:55 35.749711 -115.585986 31 13036ft 298kts
14-Apr-18 12:56 35.828341 -115.569269 359 13046ft 290kts
14-Apr-18 12:57 35.908720 -115.565468 359 13044ft 290kts
14-Apr-18 12:58 35.980280 -115.528109 54 12978ft 307kts
14-Apr-18 12:59 36.013772 -115.429712 65 11561ft 306kts
14-Apr-18 13:00 36.029685 -115.330953 93 10434ft 300kts
14-Apr-18 13:01 36.022194 -115.234760 94 9369ft 274kts
14-Apr-18 13:02 36.015607 -115.146525 92 8534ft 243kts
14-Apr-18 13:03 36.009940 -115.063350 92 8000ft 243kts
14-Apr-18 13:04 36.004861 -114.979990 92 7999ft 244kts
14-Apr-18 13:05 35.999253 -114.896262 94 7907ft 247kts
14-Apr-18 13:06 35.993294 -114.810955 76 6802ft 229kts
14-Apr-18 13:07 36.035066 -114.775651 343 5461ft 201kts
14-Apr-18 13:08 36.080258 -114.810596 287 4983ft 202kts
14-Apr-18 13:09 36.076192 -114.879411 270 4952ft 195kts
14-Apr-18 13:10 36.075012 -114.944068 266 4887ft 182kts
14-Apr-18 13:11 36.072979 -115.006042 273 4059ft 187kts
14-Apr-18 13:12 36.073128 -115.061926 275 3080ft 141kts
14-Apr-18 13:13 36.073478 -115.110072 275 2331ft 136kts
14-Apr-18 13:14 36.073665 -115.143026 279 2094ft 34kts
14-Apr-18 13:15 36.074887 -115.146293 318 2103ft 0kts
14-Apr-18 13:16 36.075612 -115.146555 358 2104ft 12kts
14-Apr-18 13:17 36.077786 -115.147411 274 2103ft 5kts
14-Apr-18 13:18 36.078539 -115.147673 88 2102ft 7kts
14-Apr-18 13:19 36.079697 -115.147478 41 2099ft 6kts
14-Apr-18 13:20 36.079923 -115.147123 56 2096ft 0kts
14-Apr-18 13:21 36.079923 -115.147123 56 2096ft 0kts
14-Apr-18 13:22 36.079923 -115.147123 56 2096ft 0kts
14-Apr-18 13:23 36.079923 -115.147123 56 2096ft 0kts
14-Apr-18 13:24 36.079923 -115.147123 56 2096ft 0kts
14-Apr-18 13:25 36.079923 -115.147123 56 2096ft 0kts
14-Apr-18 13:26 36.079923 -115.147123 56 2096ft 0kts
14-Apr-18 13:27 36.079923 -115.147123 56 2096ft 0kts
14-Apr-18 13:28 36.079923 -115.147123 56 2096ft 0kts

Navigation Log

Ident Type
Flight plan parsing failed, navigation log unavailable